Time;durP1;ratioP1;P1;durP2;ratioP2;P2;SDS_P1;SDS_P2;PMS_P1;PMS_P2;Temp;Humidity;BMP_temperature;BMP_pressure;BME280_temperature;BME280_humidity;BME280_pressure;Samples;Min_cycle;Max_cycle;Signal;HPM_P1;HPM_P2
2022/04/08 00:01:24;;;;;;;5.78;0.70;;;3.50;99.90;;;;;;5035154;28;20038;-88
2022/04/08 00:03:50;;;;;;;5.15;0.70;;;5.40;99.90;;;;;;5026744;28;20044;-89
2022/04/08 00:06:15;;;;;;;6.88;1.10;;;5.10;99.90;;;;;;5015342;28;20053;-81
2022/04/08 00:08:41;;;;;;;6.50;1.25;;;4.60;99.90;;;;;;5033660;28;20065;-93
2022/04/08 00:11:07;;;;;;;2.90;0.40;;;5.00;99.90;;;;;;5017011;28;20053;-93
2022/04/08 00:13:32;;;;;;;7.28;0.75;;;5.00;99.90;;;;;;5006632;28;20540;-86
2022/04/08 00:15:58;;;;;;;4.35;0.38;;;6.80;99.90;;;;;;5048732;28;20088;-93
2022/04/08 00:18:24;;;;;;;5.95;0.80;;;4.90;99.90;;;;;;5020590;28;20053;-95
2022/04/08 00:20:49;;;;;;;5.47;0.73;;;4.70;99.90;;;;;;5009333;28;20095;-86
2022/04/08 00:23:15;;;;;;;4.57;0.50;;;5.00;99.90;;;;;;5036812;28;20033;-87
2022/04/08 00:25:41;;;;;;;7.57;0.52;;;5.00;99.90;;;;;;5030429;28;20077;-87
2022/04/08 00:28:07;;;;;;;3.58;0.25;;;4.70;99.90;;;;;;5095406;22;20061;-83
2022/04/08 00:30:32;;;;;;;2.40;0.28;;;6.30;99.90;;;;;;4988925;28;20092;-85
2022/04/08 00:32:59;;;;;;;3.40;0.43;;;4.30;99.90;;;;;;5004585;28;20046;-80
2022/04/08 00:35:30;;;;;;;2.10;0.57;;;4.30;99.90;;;;;;5021331;28;20046;-81
2022/04/08 00:37:57;;;;;;;4.75;0.60;;;4.30;99.90;;;;;;4990295;28;20077;-88
2022/04/08 00:42:48;;;;;;;1.77;0.28;;;4.40;99.90;;;;;;5089218;22;20053;-80
2022/04/08 00:45:14;;;;;;;1.95;0.45;;;;;;;;;;5026922;23;20113;-81
2022/04/08 00:47:41;;;;;;;3.58;0.40;;;4.40;99.90;;;;;;4994827;28;20030;-83
2022/04/08 00:50:08;;;;;;;2.55;0.47;;;4.20;99.90;;;;;;5031263;23;20071;-81
2022/04/08 00:52:34;;;;;;;5.60;1.00;;;3.40;99.90;;;;;;5038935;28;20095;-81
2022/04/08 00:55:03;;;;;;;8.73;0.85;;;6.00;99.90;;;;;;5022379;28;20065;-82
2022/04/08 00:57:29;;;;;;;5.65;0.80;;;4.10;99.90;;;;;;5014936;23;20074;-83
2022/04/08 00:59:55;;;;;;;7.20;1.05;;;2.50;99.90;;;;;;5028935;28;20046;-82
2022/04/08 01:02:21;;;;;;;4.80;0.40;;;4.30;99.90;;;;;;5042288;22;20056;-81
2022/04/08 01:04:47;;;;;;;6.13;0.90;;;4.40;99.90;;;;;;5003772;23;20053;-81
2022/04/08 01:07:17;;;;;;;6.65;1.63;;;2.60;99.90;;;;;;5126368;23;20145;-81
2022/04/08 01:09:43;;;;;;;5.05;1.00;;;;;;;;;;5039807;23;20098;-88
2022/04/08 01:12:09;;;;;;;7.75;0.60;;;4.20;99.90;;;;;;5066485;22;20034;-91
2022/04/08 01:14:38;;;;;;;5.95;1.33;;;4.00;99.90;;;;;;5040163;28;20133;-87
2022/04/08 01:17:04;;;;;;;10.02;1.55;;;3.80;99.90;;;;;;5023720;28;20194;-92
2022/04/08 01:19:29;;;;;;;5.82;0.85;;;3.90;99.90;;;;;;5010855;28;20549;-92
2022/04/08 01:21:55;;;;;;;12.23;1.75;;;3.70;99.90;;;;;;5032774;28;20041;-93
2022/04/08 01:24:23;;;;;;;9.05;0.80;;;2.10;99.90;;;;;;5030498;28;20046;-88
2022/04/08 01:26:51;;;;;;;9.05;1.33;;;3.80;99.90;;;;;;5018530;28;20473;-91
2022/04/08 01:29:16;;;;;;;4.47;1.08;;;3.80;99.90;;;;;;5034758;28;20065;-96
2022/04/08 01:31:44;;;;;;;10.85;1.20;;;5.70;99.90;;;;;;5007350;28;20559;-94
2022/04/08 01:34:10;;;;;;;8.45;1.15;;;3.00;99.90;;;;;;5027831;28;20045;-87
2022/04/08 01:36:37;;;;;;;12.27;1.48;;;;;;;;;;5021723;28;20061;-88
2022/04/08 01:39:03;;;;;;;9.68;1.73;;;3.80;99.90;;;;;;5008651;28;20041;-95
2022/04/08 01:41:31;;;;;;;17.52;1.40;;;3.70;99.90;;;;;;5029406;28;20052;-89
2022/04/08 01:43:57;;;;;;;16.13;1.63;;;3.80;99.90;;;;;;5008849;28;20092;-82
2022/04/08 01:46:23;;;;;;;7.40;1.27;;;3.80;99.90;;;;;;5022128;28;20379;-88
2022/04/08 01:48:53;;;;;;;9.93;1.42;;;5.70;99.90;;;;;;5020270;28;20116;-91
2022/04/08 01:51:19;;;;;;;9.63;1.38;;;3.80;99.90;;;;;;5025984;28;20037;-90
2022/04/08 01:53:45;;;;;;;11.02;1.35;;;3.80;99.90;;;;;;4998845;28;20042;-92
2022/04/08 01:56:11;;;;;;;4.93;0.65;;;3.70;99.90;;;;;;5019069;28;20051;-81
2022/04/08 01:58:37;;;;;;;7.35;0.95;;;3.70;99.90;;;;;;5004442;28;20038;-93
2022/04/08 02:01:03;;;;;;;6.60;0.98;;;3.70;99.90;;;;;;5000162;28;20085;-93
2022/04/08 02:03:29;;;;;;;12.10;1.85;;;3.80;99.90;;;;;;5022128;28;20488;-95
2022/04/08 02:05:54;;;;;;;10.73;0.90;;;3.60;99.90;;;;;;5020683;28;20493;-93
2022/04/08 02:08:20;;;;;;;9.18;1.13;;;3.80;99.90;;;;;;5016195;28;20045;-92
2022/04/08 02:10:46;;;;;;;8.23;0.85;;;3.50;99.90;;;;;;4987092;28;20046;-93
2022/04/08 02:13:11;;;;;;;10.55;0.80;;;3.70;99.90;;;;;;5021254;28;20053;-92
2022/04/08 02:15:37;;;;;;;7.70;1.42;;;3.60;99.90;;;;;;5023541;28;20073;-95
2022/04/08 02:18:03;;;;;;;7.25;1.05;;;3.80;99.90;;;;;;5016495;28;20073;-90
2022/04/08 02:20:30;;;;;;;12.43;1.70;;;3.80;99.90;;;;;;5005768;28;20074;-93
2022/04/08 02:22:58;;;;;;;11.93;0.90;;;3.70;99.90;;;;;;5022865;28;20037;-82
2022/04/08 02:25:23;;;;;;;13.35;1.80;;;4.00;99.90;;;;;;5036030;28;20376;-93
2022/04/08 02:27:49;;;;;;;6.82;1.38;;;4.30;99.90;;;;;;5040441;28;20057;-82
2022/04/08 02:32:47;;;;;;;18.48;1.58;;;4.00;99.90;;;;;;5044649;28;20076;-82
2022/04/08 02:35:12;;;;;;;4.93;0.50;;;5.10;99.90;;;;;;5031124;28;20057;-81
2022/04/08 02:37:39;;;;;;;7.40;0.90;;;3.60;99.90;;;;;;5049129;28;20030;-89
2022/04/08 02:40:05;;;;;;;6.95;1.02;;;3.70;99.90;;;;;;5049298;22;20057;-88
2022/04/08 02:42:31;;;;;;;6.63;1.10;;;3.90;99.90;;;;;;5012805;28;20085;-83
2022/04/08 02:45:00;;;;;;;9.27;1.63;;;5.70;99.90;;;;;;4997118;28;20042;-84
2022/04/08 02:47:25;;;;;;;6.93;1.00;;;3.70;99.90;;;;;;5010850;28;20057;-88
2022/04/08 02:49:51;;;;;;;8.73;0.90;;;3.70;99.90;;;;;;5067782;22;20042;-80
2022/04/08 02:52:17;;;;;;;8.75;1.08;;;3.80;99.90;;;;;;5025754;28;20054;-80
2022/04/08 02:54:42;;;;;;;10.68;1.17;;;3.80;99.90;;;;;;5043488;23;20030;-80
2022/04/08 02:57:08;;;;;;;10.65;1.55;;;;;;;;;;5043828;22;20030;-80
2022/04/08 02:59:34;;;;;;;7.25;0.95;;;3.60;99.90;;;;;;5051051;28;20046;-80
2022/04/08 03:02:00;;;;;;;13.50;1.50;;;3.30;99.90;;;;;;5052805;23;20073;-80
2022/04/08 03:04:26;;;;;;;12.77;2.63;;;;;;;;;;5176842;22;20099;-79
2022/04/08 03:06:53;;;;;;;17.42;2.22;;;3.70;99.90;;;;;;5082758;23;20045;-80
2022/04/08 03:09:19;;;;;;;10.75;1.75;;;2.70;99.90;;;;;;5226562;22;20061;-79
2022/04/08 03:11:45;;;;;;;8.15;1.13;;;3.30;99.90;;;;;;5055307;22;20053;-80
2022/04/08 03:14:10;;;;;;;8.85;0.65;;;3.10;99.90;;;;;;5024982;23;20105;-89
2022/04/08 03:16:36;;;;;;;12.73;1.73;;;3.70;99.90;;;;;;5001059;28;20038;-85
2022/04/08 03:19:01;;;;;;;16.02;1.30;;;6.90;99.90;;;;;;5035532;23;20121;-90
2022/04/08 03:21:27;;;;;;;15.07;1.38;;;2.80;99.90;;;;;;4995989;28;20064;-91
2022/04/08 03:23:53;;;;;;;12.35;1.48;;;3.80;99.90;;;;;;5010594;28;20049;-84
2022/04/08 03:26:19;;;;;;;15.70;1.75;;;3.00;99.90;;;;;;5020608;28;20073;-87
2022/04/08 03:28:44;;;;;;;11.77;1.25;;;3.40;99.90;;;;;;5012683;28;20049;-83
2022/04/08 03:31:11;;;;;;;10.15;1.17;;;1.70;99.90;;;;;;5015257;28;20042;-86
2022/04/08 03:33:38;;;;;;;11.10;2.20;;;5.60;99.90;;;;;;4996719;28;20097;-87
2022/04/08 03:36:07;;;;;;;9.95;1.50;;;3.40;99.90;;;;;;5009458;28;20052;-84
2022/04/08 03:38:33;;;;;;;9.48;1.30;;;3.40;99.90;;;;;;4999370;28;20050;-91
2022/04/08 03:40:58;;;;;;;7.85;1.92;;;5.50;99.90;;;;;;5017176;28;20058;-84
2022/04/08 03:43:24;;;;;;;17.15;1.65;;;3.20;99.90;;;;;;5003905;28;20083;-84
2022/04/08 03:45:49;;;;;;;8.05;1.00;;;3.20;99.90;;;;;;5001978;28;20038;-83
2022/04/08 03:48:15;;;;;;;10.27;1.38;;;3.00;99.90;;;;;;5020121;28;20048;-85
2022/04/08 03:50:41;;;;;;;22.02;3.10;;;2.90;99.90;;;;;;5009746;28;20416;-87
2022/04/08 03:53:09;;;;;;;10.85;1.42;;;4.00;99.90;;;;;;5004743;28;20054;-84
2022/04/08 03:55:35;;;;;;;2.20;0.50;;;3.60;99.90;;;;;;5002754;28;20157;-87
2022/04/08 03:58:01;;;;;;;2.15;0.20;;;3.50;99.90;;;;;;5010229;28;20112;-81
2022/04/08 04:00:27;;;;;;;2.90;0.55;;;2.80;99.90;;;;;;5009804;28;20050;-85
2022/04/08 04:02:52;;;;;;;4.15;0.77;;;3.50;99.90;;;;;;4995047;28;20050;-87
2022/04/08 04:05:18;;;;;;;4.07;0.38;;;4.00;99.90;;;;;;4997296;28;20046;-91
2022/04/08 04:07:46;;;;;;;0.80;0.30;;;3.10;99.90;;;;;;5016161;28;20038;-83
2022/04/08 04:10:12;;;;;;;0.68;0.30;;;4.20;99.90;;;;;;5010584;28;20046;-83
2022/04/08 04:12:38;;;;;;;1.20;0.55;;;3.10;99.90;;;;;;5008128;28;20042;-87
2022/04/08 04:15:05;;;;;;;5.30;1.48;;;3.30;99.90;;;;;;5008974;28;20054;-91
2022/04/08 04:17:31;;;;;;;2.75;0.40;;;3.40;99.90;;;;;;5014027;28;20049;-81
2022/04/08 04:19:56;;;;;;;2.20;0.25;;;3.00;99.90;;;;;;5010720;28;20065;-80
2022/04/08 04:22:22;;;;;;;3.70;0.25;;;3.20;99.90;;;;;;4991161;28;20051;-81
2022/04/08 04:24:47;;;;;;;3.65;0.60;;;3.20;99.90;;;;;;5008673;28;20069;-82
2022/04/08 04:27:13;;;;;;;1.98;0.40;;;3.70;99.90;;;;;;5014252;28;20046;-87
2022/04/08 04:29:39;;;;;;;3.80;0.32;;;3.40;99.90;;;;;;5002879;28;20042;-88
2022/04/08 04:32:06;;;;;;;4.00;0.80;;;3.50;99.90;;;;;;5005080;28;20038;-84
2022/04/08 04:34:33;;;;;;;2.90;0.85;;;3.20;99.90;;;;;;5007707;28;20053;-90
2022/04/08 04:36:59;;;;;;;3.03;0.40;;;3.10;99.90;;;;;;5015869;28;20052;-88
2022/04/08 04:39:24;;;;;;;1.65;0.28;;;3.10;99.90;;;;;;5015557;28;20042;-91
2022/04/08 04:41:50;;;;;;;0.85;0.10;;;3.10;99.90;;;;;;5004683;28;20113;-94
2022/04/08 04:44:15;;;;;;;4.57;0.95;;;3.20;99.90;;;;;;5004152;28;20573;-91
2022/04/08 04:46:43;;;;;;;5.28;0.63;;;2.80;99.90;;;;;;4995074;28;20030;-94
2022/04/08 04:49:09;;;;;;;4.55;0.57;;;3.30;99.90;;;;;;4995778;28;20255;-90
2022/04/08 04:51:35;;;;;;;5.60;0.68;;;3.20;99.90;;;;;;5004437;28;20070;-90
2022/04/08 04:54:00;;;;;;;4.22;0.47;;;3.30;99.90;;;;;;4996266;28;20463;-93
2022/04/08 04:56:26;;;;;;;1.20;0.43;;;3.40;99.90;;;;;;4978907;28;20046;-84
2022/04/08 04:58:52;;;;;;;2.95;0.40;;;3.40;99.90;;;;;;4997819;28;20125;-85
2022/04/08 05:01:17;;;;;;;4.03;0.28;;;3.20;99.90;;;;;;5000678;28;20390;-85
2022/04/08 05:03:43;;;;;;;2.97;0.82;;;2.90;99.90;;;;;;4983552;28;20285;-89
2022/04/08 05:06:09;;;;;;;0.52;0.20;;;5.00;99.90;;;;;;4991713;28;20034;-95
2022/04/08 05:08:34;;;;;;;6.43;0.60;;;3.20;99.90;;;;;;4991982;28;20046;-88
2022/04/08 05:11:00;;;;;;;4.13;0.60;;;3.30;99.90;;;;;;4993274;28;20046;-92
2022/04/08 05:13:26;;;;;;;2.30;0.30;;;3.10;99.90;;;;;;4991541;28;20057;-89
2022/04/08 05:15:51;;;;;;;4.55;0.30;;;3.20;99.90;;;;;;5000331;28;20050;-85
2022/04/08 05:18:17;;;;;;;4.57;0.80;;;3.70;99.90;;;;;;4983817;28;20489;-91
2022/04/08 05:20:43;;;;;;;1.60;0.57;;;3.40;99.90;;;;;;4994589;28;20058;-93
2022/04/08 05:23:08;;;;;;;6.20;0.70;;;3.30;99.90;;;;;;4999862;28;20053;-91
2022/04/08 05:25:34;;;;;;;8.88;0.63;;;3.10;99.90;;;;;;4973970;28;20556;-87
2022/04/08 05:27:59;;;;;;;4.35;0.98;;;3.40;99.90;;;;;;4988281;28;20057;-85
2022/04/08 05:30:26;;;;;;;5.90;0.88;;;3.40;99.90;;;;;;4997059;28;20034;-92
2022/04/08 05:32:52;;;;;;;6.55;0.82;;;3.30;99.90;;;;;;4997984;28;20105;-79
2022/04/08 05:35:18;;;;;;;5.90;0.80;;;3.40;99.90;;;;;;4994334;28;20322;-83
2022/04/08 05:37:46;;;;;;;3.47;1.48;;;3.30;99.90;;;;;;4994157;28;20049;-79
2022/04/08 05:40:14;;;;;;;4.68;0.52;;;3.30;99.90;;;;;;4996502;28;20084;-79
2022/04/08 05:42:42;;;;;;;6.60;0.65;;;3.30;99.90;;;;;;5004147;28;20042;-79
2022/04/08 05:45:09;;;;;;;1.63;0.40;;;3.30;99.90;;;;;;4989286;28;20068;-79
2022/04/08 05:47:35;;;;;;;4.70;0.85;;;3.50;99.90;;;;;;4998701;28;20100;-81
2022/04/08 05:50:01;;;;;;;5.40;0.82;;;3.40;99.90;;;;;;5000870;28;20404;-82
2022/04/08 05:52:27;;;;;;;3.90;0.77;;;3.30;99.90;;;;;;4983308;28;20042;-79
2022/04/08 05:54:53;;;;;;;8.70;0.70;;;3.40;99.90;;;;;;4978957;28;20129;-78
2022/04/08 05:57:22;;;;;;;7.20;0.90;;;3.30;99.90;;;;;;4997860;28;20039;-81
2022/04/08 05:59:48;;;;;;;8.48;0.60;;;3.40;99.90;;;;;;4998130;28;20046;-78
2022/04/08 06:02:14;;;;;;;5.40;1.08;;;3.20;99.90;;;;;;4973589;28;20042;-79
2022/04/08 06:04:39;;;;;;;8.27;0.80;;;3.30;99.90;;;;;;4994907;28;20096;-79
2022/04/08 06:07:05;;;;;;;6.10;0.80;;;3.20;99.90;;;;;;4994833;28;20039;-80
2022/04/08 06:09:30;;;;;;;5.57;1.80;;;2.70;99.90;;;;;;4999037;28;20049;-80
2022/04/08 06:11:56;;;;;;;8.73;0.93;;;4.40;99.90;;;;;;4303493;28;10000712;-80
2022/04/08 06:14:21;;;;;;;3.70;0.93;;;3.40;99.90;;;;;;4996101;28;20600;-80
2022/04/08 06:16:47;;;;;;;2.70;0.98;;;3.30;99.90;;;;;;5000446;28;20044;-81
2022/04/08 06:19:12;;;;;;;4.90;0.82;;;3.40;99.90;;;;;;4996786;28;20535;-80
2022/04/08 06:21:38;;;;;;;6.53;1.25;;;3.40;99.90;;;;;;4989999;28;20065;-79
2022/04/08 06:24:04;;;;;;;8.32;0.90;;;3.30;99.90;;;;;;4993362;28;20586;-82
2022/04/08 06:26:32;;;;;;;4.82;1.15;;;3.50;99.90;;;;;;5006043;28;20034;-79
2022/04/08 06:28:58;;;;;;;4.47;0.93;;;3.40;99.90;;;;;;4986574;28;20046;-79
2022/04/08 06:31:28;;;;;;;6.60;1.30;;;3.40;99.90;;;;;;4990550;28;20043;-77
2022/04/08 06:33:54;;;;;;;3.75;1.63;;;3.30;99.90;;;;;;4992739;28;20142;-81
2022/04/08 06:36:20;;;;;;;6.93;1.65;;;3.70;99.90;;;;;;5001421;28;20160;-79
2022/04/08 06:38:45;;;;;;;5.40;1.05;;;3.60;99.90;;;;;;4986327;28;20049;-79
2022/04/08 06:41:11;;;;;;;6.63;0.82;;;3.60;99.90;;;;;;4999087;28;20057;-79
2022/04/08 06:43:36;;;;;;;8.32;0.90;;;3.40;99.90;;;;;;4990240;28;20049;-81
2022/04/08 06:46:02;;;;;;;8.48;1.00;;;3.80;99.90;;;;;;4998804;28;20430;-90
2022/04/08 06:48:28;;;;;;;5.22;0.63;;;3.80;99.90;;;;;;5026531;28;20057;-83
2022/04/08 06:50:54;;;;;;;6.25;0.77;;;3.90;99.90;;;;;;5008685;28;20065;-79
2022/04/08 06:53:20;;;;;;;4.25;0.77;;;3.90;99.90;;;;;;4996531;28;20710;-79
2022/04/08 06:55:45;;;;;;;4.15;1.00;;;4.10;99.90;;;;;;5000946;28;20175;-79
2022/04/08 06:58:11;;;;;;;4.05;0.85;;;4.10;99.90;;;;;;5005461;28;20050;-87
2022/04/08 07:00:37;;;;;;;3.42;0.73;;;4.30;99.90;;;;;;4985534;28;20053;-84
2022/04/08 07:03:03;;;;;;;3.92;0.82;;;4.40;99.90;;;;;;5000767;28;20372;-91
2022/04/08 07:05:29;;;;;;;3.90;0.80;;;4.40;99.90;;;;;;5002392;28;20053;-89
2022/04/08 07:07:55;;;;;;;5.55;0.80;;;4.40;99.90;;;;;;5003016;28;20362;-85
2022/04/08 07:10:21;;;;;;;7.90;0.80;;;4.50;99.90;;;;;;4994737;28;20078;-91
2022/04/08 07:12:46;;;;;;;4.15;0.75;;;4.50;99.90;;;;;;4994907;28;20101;-79
2022/04/08 07:15:12;;;;;;;3.08;1.20;;;4.50;99.90;;;;;;5001499;28;20046;-79
2022/04/08 07:17:38;;;;;;;7.97;1.13;;;4.60;99.90;;;;;;5001315;28;20069;-79
2022/04/08 07:20:05;;;;;;;5.03;0.68;;;4.50;99.90;;;;;;4994797;28;20054;-87
2022/04/08 07:22:31;;;;;;;4.43;0.68;;;4.70;99.90;;;;;;5006887;28;20037;-85
2022/04/08 07:24:56;;;;;;;8.02;1.25;;;4.60;99.90;;;;;;4982416;28;20568;-78
2022/04/08 07:27:23;;;;;;;3.17;0.85;;;4.60;99.90;;;;;;5000675;28;20070;-86
2022/04/08 07:29:50;;;;;;;4.10;0.95;;;4.70;99.90;;;;;;5000005;28;20050;-80
2022/04/08 07:32:20;;;;;;;4.13;0.80;;;4.60;99.90;;;;;;4973946;28;20053;-82
2022/04/08 07:34:47;;;;;;;9.70;0.90;;;4.70;99.90;;;;;;4987415;28;20046;-89
2022/04/08 07:37:13;;;;;;;6.68;1.10;;;4.70;99.90;;;;;;5009222;28;20151;-79
2022/04/08 07:39:41;;;;;;;5.35;0.80;;;4.90;99.90;;;;;;4996703;28;20129;-85
2022/04/08 07:42:07;;;;;;;5.03;0.93;;;5.00;99.90;;;;;;4996416;28;20100;-83
2022/04/08 07:44:33;;;;;;;7.90;1.38;;;5.20;99.90;;;;;;5003438;28;20141;-80
2022/04/08 07:46:58;;;;;;;5.57;0.80;;;5.30;99.90;;;;;;4992645;28;20125;-79
2022/04/08 07:49:24;;;;;;;7.18;1.15;;;5.40;99.90;;;;;;5003757;28;20413;-80
2022/04/08 07:51:50;;;;;;;8.40;0.93;;;5.40;99.90;;;;;;5003701;28;20144;-79
2022/04/08 07:54:15;;;;;;;3.42;0.70;;;5.50;99.90;;;;;;4982356;28;20089;-88
2022/04/08 07:56:41;;;;;;;4.97;1.10;;;5.40;99.90;;;;;;5002075;28;20042;-83
2022/04/08 07:59:06;;;;;;;6.35;0.75;;;5.40;99.90;;;;;;4983349;28;20605;-87
2022/04/08 08:01:32;;;;;;;8.70;2.10;;;5.50;99.90;;;;;;4998525;28;20029;-80
2022/04/08 08:03:57;;;;;;;9.82;1.20;;;5.50;99.90;;;;;;5000292;28;20119;-87
2022/04/08 08:06:23;;;;;;;6.95;0.85;;;5.40;99.90;;;;;;4998401;28;20035;-79
2022/04/08 08:08:50;;;;;;;6.90;1.15;;;5.60;99.90;;;;;;4999742;28;20433;-80
2022/04/08 08:11:18;;;;;;;9.25;1.15;;;5.60;99.90;;;;;;5003162;28;20046;-80
2022/04/08 08:13:44;;;;;;;6.40;1.10;;;5.60;99.90;;;;;;5016097;28;20057;-82
2022/04/08 08:16:09;;;;;;;8.65;1.33;;;5.80;99.90;;;;;;4983638;28;20770;-82
2022/04/08 08:18:35;;;;;;;9.32;1.85;;;5.90;99.90;;;;;;5002341;28;20049;-80
2022/04/08 08:21:01;;;;;;;5.63;0.60;;;5.90;99.90;;;;;;4996892;28;20097;-87
2022/04/08 08:23:27;;;;;;;8.30;0.90;;;6.00;99.90;;;;;;5005058;28;20042;-86
2022/04/08 08:25:53;;;;;;;6.45;0.63;;;6.30;99.90;;;;;;5001284;28;20034;-87
2022/04/08 08:28:19;;;;;;;1.52;0.85;;;6.30;99.90;;;;;;4998592;28;20127;-85
2022/04/08 08:30:45;;;;;;;8.95;1.15;;;6.00;99.90;;;;;;5001206;28;20045;-82
2022/04/08 08:33:11;;;;;;;12.30;1.83;;;6.50;99.90;;;;;;4999845;28;20042;-89
2022/04/08 08:35:37;;;;;;;6.07;0.80;;;6.40;99.90;;;;;;5008027;28;20069;-79
2022/04/08 08:38:03;;;;;;;7.35;0.90;;;6.40;99.90;;;;;;5002554;28;20042;-81
2022/04/08 08:40:33;;;;;;;5.22;0.80;;;6.60;99.90;;;;;;5006305;28;20121;-83
2022/04/08 08:43:00;;;;;;;7.55;0.65;;;6.70;99.90;;;;;;4995391;28;20042;-79
2022/04/08 08:45:32;;;;;;;6.57;0.50;;;6.70;99.90;;;;;;5002622;28;20042;-84
2022/04/08 08:48:03;;;;;;;4.30;0.60;;;6.80;99.90;;;;;;5006298;28;20129;-87
2022/04/08 08:50:29;;;;;;;4.55;0.68;;;8.80;99.90;;;;;;5001900;28;20042;-88
2022/04/08 08:52:55;;;;;;;4.22;0.82;;;8.40;99.90;;;;;;4998941;28;20050;-86
2022/04/08 08:55:21;;;;;;;1.33;0.47;;;7.40;99.90;;;;;;4999380;28;20053;-81
2022/04/08 08:57:48;;;;;;;6.65;0.65;;;6.90;99.90;;;;;;4996076;28;20050;-80
2022/04/08 09:00:16;;;;;;;5.55;0.57;;;6.80;99.90;;;;;;4999579;28;20038;-88
2022/04/08 09:02:48;;;;;;;7.00;0.80;;;6.90;99.90;;;;;;4997648;28;20042;-79
2022/04/08 09:05:24;;;;;;;4.22;0.40;;;6.80;99.90;;;;;;5001647;28;20131;-81
2022/04/08 09:07:58;;;;;;;2.15;0.82;;;6.80;99.90;;;;;;4992131;28;20061;-80
2022/04/08 09:10:29;;;;;;;3.15;0.52;;;6.90;99.90;;;;;;4996259;28;20052;-90
2022/04/08 09:12:56;;;;;;;3.33;0.63;;;7.10;99.90;;;;;;4992813;28;20049;-94
2022/04/08 09:15:23;;;;;;;5.95;0.55;;;7.00;99.90;;;;;;5000690;28;20077;-83
2022/04/08 09:17:49;;;;;;;5.30;0.50;;;7.20;99.90;;;;;;4979802;28;20046;-82
2022/04/08 09:20:15;;;;;;;10.20;0.90;;;7.20;99.90;;;;;;4990348;28;20050;-89
2022/04/08 09:22:40;;;;;;;3.92;0.50;;;7.20;99.90;;;;;;4999808;23;20561;-83
2022/04/08 09:25:11;;;;;;;6.10;0.68;;;6.90;99.90;;;;;;4980937;28;20046;-86
2022/04/08 09:27:40;;;;;;;7.50;0.85;;;7.30;99.90;;;;;;4988136;28;20078;-92
2022/04/08 09:30:10;;;;;;;4.45;1.35;;;7.00;99.90;;;;;;4972244;28;20100;-92
2022/04/08 09:32:36;;;;;;;6.97;1.17;;;7.60;99.90;;;;;;4981953;28;20057;-80
2022/04/08 09:35:03;;;;;;;7.07;0.70;;;7.40;99.90;;;;;;4971622;28;20133;-83
2022/04/08 09:37:29;;;;;;;2.47;0.32;;;7.60;99.90;;;;;;4990149;28;20037;-79
2022/04/08 09:40:03;;;;;;;2.55;0.55;;;9.50;99.90;;;;;;4981910;28;20050;-89
2022/04/08 09:42:47;;;;;;;3.53;0.30;;;7.80;99.90;;;;;;4974936;28;20088;-90
2022/04/08 09:45:14;;;;;;;3.08;0.75;;;7.90;99.90;;;;;;4987893;28;20038;-78
2022/04/08 09:47:40;;;;;;;2.33;0.50;;;7.80;99.90;;;;;;4990729;28;20079;-80
2022/04/08 09:50:09;;;;;;;12.70;1.73;;;7.90;99.90;;;;;;4990562;28;20057;-94
2022/04/08 09:52:41;;;;;;;4.35;0.65;;;8.10;99.90;;;;;;4987781;28;20047;-83
2022/04/08 09:55:07;;;;;;;3.90;0.43;;;8.10;99.90;;;;;;4989963;28;20474;-81
2022/04/08 09:57:39;;;;;;;6.00;0.95;;;8.10;99.90;;;;;;4980932;28;20426;-90
2022/04/08 10:00:06;;;;;;;2.90;0.38;;;7.90;99.90;;;;;;4989389;28;20046;-95
2022/04/08 10:02:35;;;;;;;3.05;0.30;;;8.10;99.90;;;;;;4985458;28;20077;-79
2022/04/08 10:05:02;;;;;;;5.78;0.82;;;7.80;99.90;;;;;;4989355;28;20038;-81
2022/04/08 10:07:29;;;;;;;3.28;0.50;;;7.90;99.90;;;;;;4954546;28;20082;-80
2022/04/08 10:10:12;;;;;;;4.60;0.40;;;8.00;99.90;;;;;;4982653;28;20467;-79
2022/04/08 10:12:55;;;;;;;3.23;0.43;;;9.80;99.90;;;;;;4984450;28;20498;-87
2022/04/08 10:15:32;;;;;;;4.30;0.50;;;8.20;99.90;;;;;;4982395;28;20046;-79
2022/04/08 10:17:59;;;;;;;6.35;0.98;;;8.30;99.90;;;;;;4970198;28;20133;-79
2022/04/08 10:20:28;;;;;;;4.10;0.47;;;8.30;99.90;;;;;;4988743;28;20116;-86
2022/04/08 10:23:05;;;;;;;6.20;0.60;;;8.40;99.90;;;;;;4987100;28;20054;-92
2022/04/08 10:25:40;;;;;;;5.45;0.65;;;8.50;99.90;;;;;;4982080;28;20046;-86
2022/04/08 10:28:07;;;;;;;3.80;0.77;;;8.60;99.90;;;;;;4980661;28;20030;-87
2022/04/08 10:30:36;;;;;;;3.85;0.38;;;8.50;99.90;;;;;;4991592;28;20046;-89
2022/04/08 10:33:06;;;;;;;4.40;0.63;;;8.70;99.90;;;;;;4986920;28;20050;-79
2022/04/08 10:35:31;;;;;;;4.25;0.47;;;8.80;99.90;;;;;;4988548;28;20042;-83
2022/04/08 10:38:05;;;;;;;4.93;0.57;;;8.60;99.90;;;;;;4988666;28;20116;-79
2022/04/08 10:40:32;;;;;;;2.25;0.47;;;8.50;99.90;;;;;;4975554;28;20093;-96
2022/04/08 10:42:59;;;;;;;3.25;0.65;;;8.50;99.90;;;;;;4985197;28;20049;-81
2022/04/08 10:45:25;;;;;;;4.80;0.47;;;8.50;99.90;;;;;;4987238;28;20491;-79
2022/04/08 10:47:51;;;;;;;2.78;0.50;;;8.50;99.90;;;;;;4986068;28;20061;-79
2022/04/08 10:50:28;;;;;;;6.15;0.30;;;8.60;99.90;;;;;;4988041;28;20125;-80
2022/04/08 10:53:14;;;;;;;4.75;0.40;;;8.70;99.90;;;;;;4967815;28;20045;-79
2022/04/08 10:55:54;;;;;;;7.95;0.77;;;8.80;99.90;;;;;;4975995;28;20285;-80
2022/04/08 10:58:39;;;;;;;6.70;0.85;;;8.70;99.90;;;;;;4986812;28;20058;-88
2022/04/08 11:01:19;;;;;;;8.13;0.90;;;8.50;99.90;;;;;;4984668;28;20052;-83
2022/04/08 11:04:03;;;;;;;7.70;0.57;;;8.30;99.90;;;;;;4985266;28;20120;-86
2022/04/08 11:06:31;;;;;;;4.43;0.38;;;8.20;99.90;;;;;;4981059;28;20047;-87
2022/04/08 11:09:04;;;;;;;3.60;0.40;;;7.90;99.90;;;;;;4960184;28;20122;-79
2022/04/08 11:11:31;;;;;;;3.83;0.43;;;7.80;99.90;;;;;;4985532;28;20165;-79
2022/04/08 11:13:58;;;;;;;3.88;0.30;;;7.60;99.90;;;;;;4984463;28;20050;-83
2022/04/08 11:16:27;;;;;;;2.00;0.20;;;7.50;99.90;;;;;;4987144;28;20384;-81
2022/04/08 11:18:54;;;;;;;7.05;0.40;;;7.20;99.90;;;;;;4980864;28;20065;-87
2022/04/08 11:21:21;;;;;;;2.20;0.30;;;7.00;99.90;;;;;;4986080;28;20519;-89
2022/04/08 11:23:58;;;;;;;1.23;0.20;;;6.90;99.90;;;;;;4982622;28;20058;-85
2022/04/08 11:26:23;;;;;;;4.38;0.43;;;6.70;99.90;;;;;;4988297;28;20130;-86
2022/04/08 11:28:49;;;;;;;2.00;0.20;;;6.50;99.90;;;;;;4988780;28;20397;-82
2022/04/08 11:31:18;;;;;;;3.92;0.57;;;6.50;99.90;;;;;;4984987;28;20038;-78
2022/04/08 11:33:44;;;;;;;3.35;0.30;;;6.60;99.90;;;;;;4972540;28;20034;-78
2022/04/08 11:36:09;;;;;;;2.78;0.75;;;6.70;99.90;;;;;;4987636;28;20058;-78
2022/04/08 11:38:35;;;;;;;5.40;0.35;;;8.60;99.90;;;;;;4993323;28;20041;-81
2022/04/08 11:41:02;;;;;;;5.80;0.63;;;8.60;99.90;;;;;;4986581;28;20506;-87
2022/04/08 11:43:28;;;;;;;4.75;0.47;;;7.20;99.90;;;;;;4985256;28;20069;-79
2022/04/08 11:45:53;;;;;;;4.10;0.90;;;7.30;99.90;;;;;;4987631;28;20463;-79
2022/04/08 11:48:23;;;;;;;4.80;0.70;;;7.40;99.90;;;;;;4979975;28;20117;-79
2022/04/08 11:50:49;;;;;;;4.57;0.50;;;7.70;99.90;;;;;;4965636;28;20045;-78
2022/04/08 11:53:20;;;;;;;6.95;0.95;;;7.80;99.90;;;;;;4983981;28;20054;-80
2022/04/08 11:56:01;;;;;;;5.38;0.75;;;7.90;99.90;;;;;;4982330;28;20038;-78
2022/04/08 11:58:28;;;;;;;1.70;0.30;;;8.10;99.90;;;;;;4988196;28;20086;-79
2022/04/08 12:00:55;;;;;;;1.70;0.60;;;8.30;99.90;;;;;;4984861;28;20384;-88
2022/04/08 12:03:23;;;;;;;2.72;0.25;;;8.50;99.90;;;;;;4988153;28;20058;-79
2022/04/08 12:05:49;;;;;;;4.65;0.38;;;8.10;99.90;;;;;;4984019;28;20185;-77
2022/04/08 12:08:16;;;;;;;7.65;0.47;;;8.60;99.90;;;;;;4292759;28;10000724;-82
2022/04/08 12:10:41;;;;;;;6.75;0.60;;;8.80;99.90;;;;;;4981029;28;20042;-85
2022/04/08 12:13:22;;;;;;;1.83;0.47;;;11.00;99.90;;;;;;4982780;28;20050;-86
2022/04/08 12:15:49;;;;;;;5.38;0.63;;;9.10;99.90;;;;;;4983903;28;20803;-85
2022/04/08 12:18:25;;;;;;;5.13;0.35;;;9.10;99.90;;;;;;4986681;28;20130;-79
2022/04/08 12:20:57;;;;;;;6.55;1.58;;;9.20;99.90;;;;;;4988736;28;20132;-78
2022/04/08 12:23:25;;;;;;;5.25;0.73;;;9.20;99.90;;;;;;4966765;28;20066;-81
2022/04/08 12:26:02;;;;;;;8.75;2.15;;;9.20;99.90;;;;;;4988955;28;20981;-78
2022/04/08 12:28:34;;;;;;;3.88;0.55;;;10.50;99.90;;;;;;4985909;28;20416;-78
2022/04/08 12:31:21;;;;;;;3.25;0.40;;;9.30;99.90;;;;;;4965803;28;20046;-83
2022/04/08 12:33:47;;;;;;;1.52;0.30;;;9.50;99.90;;;;;;4963563;28;20064;-79
2022/04/08 12:36:13;;;;;;;6.95;1.60;;;9.50;99.90;;;;;;4986877;28;20487;-78
2022/04/08 12:38:40;;;;;;;9.20;1.50;;;9.50;99.90;;;;;;4986117;28;20121;-77
2022/04/08 12:41:07;;;;;;;8.77;1.13;;;9.60;99.90;;;;;;4954792;28;20482;-78
2022/04/08 12:43:33;;;;;;;8.48;0.80;;;9.60;99.90;;;;;;4984170;28;20042;-78
2022/04/08 12:45:59;;;;;;;5.60;0.63;;;9.50;99.90;;;;;;4985393;28;20053;-79
2022/04/08 12:48:25;;;;;;;4.60;0.77;;;9.10;99.90;;;;;;4983054;28;20145;-83
2022/04/08 12:50:50;;;;;;;6.25;0.82;;;9.20;99.90;;;;;;4988170;28;20122;-79
2022/04/08 12:53:16;;;;;;;4.68;0.90;;;10.60;99.90;;;;;;4986286;28;20047;-80
2022/04/08 12:55:42;;;;;;;6.32;1.05;;;9.00;99.90;;;;;;4987303;28;20046;-79
2022/04/08 12:58:07;;;;;;;7.80;0.75;;;8.80;99.90;;;;;;4985439;28;20105;-81
2022/04/08 13:00:33;;;;;;;7.65;0.90;;;8.50;99.90;;;;;;4972158;28;20042;-79
2022/04/08 13:03:00;;;;;;;7.63;0.70;;;8.70;99.90;;;;;;4987295;28;20066;-80